Aérodrome :
LOGIN :

S'inscrire | Disclaimer

   EN    FR    IT 

 










Légende :    VFR   VFR Marginal   IFR   IFR Intensif   IFR Très Intensif
Visi : 
Plafond : 
>= 8 km
>= 3000ft
5 à 8 km
1000 à 3000 ft
1500m à 5 km
500 à 1000 ft
800 à 1500m
200 à 500 ft
< 800m
< 200 ft
Symboles :   Orages  Brouillard  Fortes neiges  Fortes précipitations  Vent > 20 kt
SIGMETs :   Divers  Orages  Givrage  Turbulence  Onde Orograph.  Cendres Volcan.






- Altitude de l'aérodrome : 939 ft


LKKB - Kbely Air Base

DERNIER METAR :
  • 280500Z 33006KT 300V360 8000 RA SCT007 OVC034 11/10 Q1028 NOSIG

METARs EXPIRÉS :
  • 280430Z 32007KT 290V350 8000 -RA SCT011 OVC033 11/10 Q1028 NOSIG
  • 280400Z 32008KT 290V360 6000 RA FEW013 OVC050 11/10 Q1027 NOSIG
  • 280330Z 30009KT 9999 -RA SCT048 BKN060 13/09 Q1027
  • 280300Z 30005KT 270V330 9999 -RA SCT048 BKN060 13/09 Q1027
  • 280230Z 21003KT CAVOK 12/08 Q1026

TAF TAF LKKB
Valide du 28 à 00h jusqu'au 29 à 00h UTC


272300Z 2800/2900 33008KT CAVOK
BECMG 2801/2803 SCT028 BKN035
TEMPO 2803/2810 01015G25KT 5000 RA BR SCT010 OVC018
TEMPO 2810/2818 01015G25KT 6000 SHRA SCT018 OVC025
BECMG 2818/2820 CAVOK



MET'MAP, la Météo Aéronautique d'un coup d'oeil ! - Copyright ORBIFLY Décembre 2007 - Disclaimer

ORBIFLY MET'MAP TEAM :

Programmation & Développement : Alexandra Zaïnal
Sur une idée originale de : Baudouin d'Aumeries
Assistance à la programmation : Marc-Olivier Méhu
Soutien technique & logistique : Manuel Goepfert

Contact : metmap@orbifly.com




SOURCES & CREDITS :

   NOAA